sensor_id;sensor_type;location;lat;lon;timestamp;P1;durP1;ratioP1;P2;durP2;ratioP2
8419;SDS011;4247;48.550;8.822;2023-12-20T00:01:07;1.20;;;0.40;;
8419;SDS011;4247;48.550;8.822;2023-12-20T00:03:34;0.40;;;0.30;;
8419;SDS011;4247;48.550;8.822;2023-12-20T00:06:00;0.30;;;0.30;;
8419;SDS011;4247;48.550;8.822;2023-12-20T00:08:27;0.40;;;0.40;;
8419;SDS011;4247;48.550;8.822;2023-12-20T00:10:54;0.40;;;0.40;;
8419;SDS011;4247;48.550;8.822;2023-12-20T00:13:20;0.30;;;0.30;;
8419;SDS011;4247;48.550;8.822;2023-12-20T00:15:49;0.50;;;0.50;;
8419;SDS011;4247;48.550;8.822;2023-12-20T00:18:16;0.40;;;0.40;;
8419;SDS011;4247;48.550;8.822;2023-12-20T00:20:42;0.20;;;0.20;;
8419;SDS011;4247;48.550;8.822;2023-12-20T00:23:09;0.27;;;0.27;;
8419;SDS011;4247;48.550;8.822;2023-12-20T00:25:36;0.30;;;0.30;;
8419;SDS011;4247;48.550;8.822;2023-12-20T00:28:03;0.20;;;0.20;;
8419;SDS011;4247;48.550;8.822;2023-12-20T00:30:30;0.40;;;0.40;;
8419;SDS011;4247;48.550;8.822;2023-12-20T00:32:58;0.43;;;0.30;;
8419;SDS011;4247;48.550;8.822;2023-12-20T00:35:25;0.40;;;0.40;;
8419;SDS011;4247;48.550;8.822;2023-12-20T00:37:52;0.63;;;0.40;;
8419;SDS011;4247;48.550;8.822;2023-12-20T00:40:19;1.80;;;0.20;;
8419;SDS011;4247;48.550;8.822;2023-12-20T00:42:47;0.20;;;0.20;;
8419;SDS011;4247;48.550;8.822;2023-12-20T00:45:14;0.43;;;0.43;;
8419;SDS011;4247;48.550;8.822;2023-12-20T00:47:41;0.53;;;0.30;;
8419;SDS011;4247;48.550;8.822;2023-12-20T00:50:09;3.27;;;0.40;;
8419;SDS011;4247;48.550;8.822;2023-12-20T00:52:36;0.30;;;0.30;;
8419;SDS011;4247;48.550;8.822;2023-12-20T00:55:03;0.20;;;0.20;;
8419;SDS011;4247;48.550;8.822;2023-12-20T00:57:30;0.97;;;0.40;;
8419;SDS011;4247;48.550;8.822;2023-12-20T00:59:57;0.33;;;0.30;;
8419;SDS011;4247;48.550;8.822;2023-12-20T01:02:24;0.20;;;0.20;;
8419;SDS011;4247;48.550;8.822;2023-12-20T01:04:51;2.83;;;0.30;;
8419;SDS011;4247;48.550;8.822;2023-12-20T01:07:19;1.60;;;0.20;;
8419;SDS011;4247;48.550;8.822;2023-12-20T01:09:46;0.20;;;0.20;;
8419;SDS011;4247;48.550;8.822;2023-12-20T01:12:12;0.77;;;0.40;;
8419;SDS011;4247;48.550;8.822;2023-12-20T01:14:39;0.43;;;0.40;;
8419;SDS011;4247;48.550;8.822;2023-12-20T01:17:06;0.63;;;0.40;;
8419;SDS011;4247;48.550;8.822;2023-12-20T01:19:33;0.50;;;0.40;;
8419;SDS011;4247;48.550;8.822;2023-12-20T01:22:00;0.20;;;0.20;;
8419;SDS011;4247;48.550;8.822;2023-12-20T01:24:28;0.30;;;0.30;;
8419;SDS011;4247;48.550;8.822;2023-12-20T01:26:55;0.30;;;0.30;;
8419;SDS011;4247;48.550;8.822;2023-12-20T01:29:21;0.73;;;0.30;;
8419;SDS011;4247;48.550;8.822;2023-12-20T01:31:48;0.30;;;0.30;;
8419;SDS011;4247;48.550;8.822;2023-12-20T01:34:15;1.37;;;0.20;;
8419;SDS011;4247;48.550;8.822;2023-12-20T01:36:42;0.20;;;0.20;;
8419;SDS011;4247;48.550;8.822;2023-12-20T01:39:09;0.20;;;0.20;;
8419;SDS011;4247;48.550;8.822;2023-12-20T01:41:37;0.20;;;0.20;;
8419;SDS011;4247;48.550;8.822;2023-12-20T01:44:04;0.20;;;0.20;;
8419;SDS011;4247;48.550;8.822;2023-12-20T01:46:31;0.20;;;0.20;;
8419;SDS011;4247;48.550;8.822;2023-12-20T01:48:58;0.20;;;0.20;;
8419;SDS011;4247;48.550;8.822;2023-12-20T01:51:25;0.20;;;0.20;;
8419;SDS011;4247;48.550;8.822;2023-12-20T01:53:53;0.20;;;0.17;;
8419;SDS011;4247;48.550;8.822;2023-12-20T01:56:21;0.10;;;0.10;;
8419;SDS011;4247;48.550;8.822;2023-12-20T01:58:49;0.10;;;0.10;;
8419;SDS011;4247;48.550;8.822;2023-12-20T02:01:16;0.20;;;0.20;;
8419;SDS011;4247;48.550;8.822;2023-12-20T02:03:43;0.10;;;0.10;;
8419;SDS011;4247;48.550;8.822;2023-12-20T02:06:11;0.10;;;0.10;;
8419;SDS011;4247;48.550;8.822;2023-12-20T02:08:38;0.47;;;0.10;;
8419;SDS011;4247;48.550;8.822;2023-12-20T02:11:05;0.10;;;0.10;;
8419;SDS011;4247;48.550;8.822;2023-12-20T02:13:32;0.63;;;0.20;;
8419;SDS011;4247;48.550;8.822;2023-12-20T02:16:00;0.00;;;0.00;;
8419;SDS011;4247;48.550;8.822;2023-12-20T02:18:27;2.83;;;0.10;;
8419;SDS011;4247;48.550;8.822;2023-12-20T02:20:54;0.10;;;0.10;;
8419;SDS011;4247;48.550;8.822;2023-12-20T02:23:22;0.43;;;0.10;;
8419;SDS011;4247;48.550;8.822;2023-12-20T02:25:49;0.10;;;0.10;;
8419;SDS011;4247;48.550;8.822;2023-12-20T02:28:16;0.10;;;0.10;;
8419;SDS011;4247;48.550;8.822;2023-12-20T02:30:43;0.00;;;0.00;;
8419;SDS011;4247;48.550;8.822;2023-12-20T02:33:10;1.90;;;0.10;;
8419;SDS011;4247;48.550;8.822;2023-12-20T02:35:39;0.10;;;0.10;;
8419;SDS011;4247;48.550;8.822;2023-12-20T02:38:06;0.23;;;0.00;;
8419;SDS011;4247;48.550;8.822;2023-12-20T02:40:34;0.00;;;0.00;;
8419;SDS011;4247;48.550;8.822;2023-12-20T02:43:01;0.00;;;0.00;;
8419;SDS011;4247;48.550;8.822;2023-12-20T02:45:28;0.03;;;0.03;;
8419;SDS011;4247;48.550;8.822;2023-12-20T02:47:55;0.00;;;0.00;;
8419;SDS011;4247;48.550;8.822;2023-12-20T02:50:22;0.00;;;0.00;;
8419;SDS011;4247;48.550;8.822;2023-12-20T02:52:49;0.00;;;0.00;;
8419;SDS011;4247;48.550;8.822;2023-12-20T02:55:15;0.00;;;0.00;;
8419;SDS011;4247;48.550;8.822;2023-12-20T02:57:45;0.00;;;0.00;;
8419;SDS011;4247;48.550;8.822;2023-12-20T03:00:12;0.10;;;0.00;;
8419;SDS011;4247;48.550;8.822;2023-12-20T03:02:39;0.07;;;0.07;;
8419;SDS011;4247;48.550;8.822;2023-12-20T03:05:06;0.53;;;0.00;;
8419;SDS011;4247;48.550;8.822;2023-12-20T03:07:33;0.00;;;0.00;;
8419;SDS011;4247;48.550;8.822;2023-12-20T03:10:02;0.00;;;0.00;;
8419;SDS011;4247;48.550;8.822;2023-12-20T03:12:31;0.00;;;0.00;;
8419;SDS011;4247;48.550;8.822;2023-12-20T03:14:59;0.00;;;0.00;;
8419;SDS011;4247;48.550;8.822;2023-12-20T03:17:26;0.00;;;0.00;;
8419;SDS011;4247;48.550;8.822;2023-12-20T03:19:52;0.00;;;0.00;;
8419;SDS011;4247;48.550;8.822;2023-12-20T03:22:19;0.00;;;0.00;;
8419;SDS011;4247;48.550;8.822;2023-12-20T03:24:46;0.00;;;0.00;;
8419;SDS011;4247;48.550;8.822;2023-12-20T03:27:12;0.00;;;0.00;;
8419;SDS011;4247;48.550;8.822;2023-12-20T03:29:39;0.00;;;0.00;;
8419;SDS011;4247;48.550;8.822;2023-12-20T03:32:07;0.00;;;0.00;;
8419;SDS011;4247;48.550;8.822;2023-12-20T03:34:34;0.00;;;0.00;;
8419;SDS011;4247;48.550;8.822;2023-12-20T03:37:01;0.00;;;0.00;;
8419;SDS011;4247;48.550;8.822;2023-12-20T03:39:27;0.10;;;0.00;;
8419;SDS011;4247;48.550;8.822;2023-12-20T03:41:54;0.00;;;0.00;;
8419;SDS011;4247;48.550;8.822;2023-12-20T03:44:21;0.00;;;0.00;;
8419;SDS011;4247;48.550;8.822;2023-12-20T03:46:47;0.10;;;0.00;;
8419;SDS011;4247;48.550;8.822;2023-12-20T03:49:15;0.00;;;0.00;;
8419;SDS011;4247;48.550;8.822;2023-12-20T03:51:42;0.00;;;0.00;;
8419;SDS011;4247;48.550;8.822;2023-12-20T03:54:09;0.00;;;0.00;;
8419;SDS011;4247;48.550;8.822;2023-12-20T03:56:35;0.00;;;0.00;;
8419;SDS011;4247;48.550;8.822;2023-12-20T03:59:02;0.00;;;0.00;;
8419;SDS011;4247;48.550;8.822;2023-12-20T04:01:29;0.03;;;0.00;;
8419;SDS011;4247;48.550;8.822;2023-12-20T04:03:55;0.20;;;0.03;;
8419;SDS011;4247;48.550;8.822;2023-12-20T04:06:23;0.07;;;0.00;;
8419;SDS011;4247;48.550;8.822;2023-12-20T04:08:50;0.00;;;0.00;;
8419;SDS011;4247;48.550;8.822;2023-12-20T04:11:17;0.00;;;0.00;;
8419;SDS011;4247;48.550;8.822;2023-12-20T04:13:43;0.10;;;0.07;;
8419;SDS011;4247;48.550;8.822;2023-12-20T04:16:10;0.00;;;0.00;;
8419;SDS011;4247;48.550;8.822;2023-12-20T04:18:37;0.00;;;0.00;;
8419;SDS011;4247;48.550;8.822;2023-12-20T04:21:04;0.00;;;0.00;;
8419;SDS011;4247;48.550;8.822;2023-12-20T04:23:32;0.00;;;0.00;;
8419;SDS011;4247;48.550;8.822;2023-12-20T04:25:58;0.00;;;0.00;;
8419;SDS011;4247;48.550;8.822;2023-12-20T04:28:25;0.00;;;0.00;;
8419;SDS011;4247;48.550;8.822;2023-12-20T04:30:51;0.10;;;0.10;;
8419;SDS011;4247;48.550;8.822;2023-12-20T04:33:18;0.07;;;0.00;;
8419;SDS011;4247;48.550;8.822;2023-12-20T04:35:45;0.00;;;0.00;;
8419;SDS011;4247;48.550;8.822;2023-12-20T04:38:11;0.00;;;0.00;;
8419;SDS011;4247;48.550;8.822;2023-12-20T04:40:40;0.00;;;0.00;;
8419;SDS011;4247;48.550;8.822;2023-12-20T04:43:06;0.10;;;0.10;;
8419;SDS011;4247;48.550;8.822;2023-12-20T04:45:33;0.00;;;0.00;;
8419;SDS011;4247;48.550;8.822;2023-12-20T04:48:01;0.00;;;0.00;;
8419;SDS011;4247;48.550;8.822;2023-12-20T04:50:27;0.00;;;0.00;;
8419;SDS011;4247;48.550;8.822;2023-12-20T04:52:54;0.00;;;0.00;;
8419;SDS011;4247;48.550;8.822;2023-12-20T04:55:21;0.00;;;0.00;;
8419;SDS011;4247;48.550;8.822;2023-12-20T04:57:49;0.10;;;0.10;;
8419;SDS011;4247;48.550;8.822;2023-12-20T05:00:16;0.10;;;0.10;;
8419;SDS011;4247;48.550;8.822;2023-12-20T05:02:43;0.10;;;0.10;;
8419;SDS011;4247;48.550;8.822;2023-12-20T05:05:09;0.60;;;0.10;;
8419;SDS011;4247;48.550;8.822;2023-12-20T05:07:36;0.07;;;0.07;;
8419;SDS011;4247;48.550;8.822;2023-12-20T05:10:03;0.00;;;0.00;;
8419;SDS011;4247;48.550;8.822;2023-12-20T05:12:30;0.10;;;0.10;;
8419;SDS011;4247;48.550;8.822;2023-12-20T05:14:58;1.23;;;0.20;;
8419;SDS011;4247;48.550;8.822;2023-12-20T05:17:25;0.10;;;0.10;;
8419;SDS011;4247;48.550;8.822;2023-12-20T05:19:52;0.27;;;0.10;;
8419;SDS011;4247;48.550;8.822;2023-12-20T05:22:19;0.20;;;0.20;;
8419;SDS011;4247;48.550;8.822;2023-12-20T05:24:46;0.20;;;0.20;;
8419;SDS011;4247;48.550;8.822;2023-12-20T05:27:13;0.20;;;0.20;;
8419;SDS011;4247;48.550;8.822;2023-12-20T05:29:39;0.20;;;0.20;;
8419;SDS011;4247;48.550;8.822;2023-12-20T05:32:07;0.33;;;0.30;;
8419;SDS011;4247;48.550;8.822;2023-12-20T05:34:34;0.20;;;0.20;;
8419;SDS011;4247;48.550;8.822;2023-12-20T05:37:01;0.30;;;0.30;;
8419;SDS011;4247;48.550;8.822;2023-12-20T05:39:28;0.20;;;0.20;;
8419;SDS011;4247;48.550;8.822;2023-12-20T05:41:55;0.20;;;0.20;;
8419;SDS011;4247;48.550;8.822;2023-12-20T05:44:22;0.10;;;0.10;;
8419;SDS011;4247;48.550;8.822;2023-12-20T05:46:49;0.10;;;0.10;;
8419;SDS011;4247;48.550;8.822;2023-12-20T05:49:17;0.33;;;0.10;;
8419;SDS011;4247;48.550;8.822;2023-12-20T05:51:44;0.10;;;0.10;;
8419;SDS011;4247;48.550;8.822;2023-12-20T05:54:10;1.03;;;0.80;;
8419;SDS011;4247;48.550;8.822;2023-12-20T05:56:37;0.23;;;0.20;;
8419;SDS011;4247;48.550;8.822;2023-12-20T05:59:04;0.57;;;0.10;;
8419;SDS011;4247;48.550;8.822;2023-12-20T06:01:31;0.10;;;0.10;;
8419;SDS011;4247;48.550;8.822;2023-12-20T06:03:57;0.10;;;0.10;;
8419;SDS011;4247;48.550;8.822;2023-12-20T06:06:25;0.10;;;0.10;;
8419;SDS011;4247;48.550;8.822;2023-12-20T06:08:52;0.07;;;0.07;;
8419;SDS011;4247;48.550;8.822;2023-12-20T06:11:19;0.30;;;0.17;;
8419;SDS011;4247;48.550;8.822;2023-12-20T06:13:45;0.17;;;0.17;;
8419;SDS011;4247;48.550;8.822;2023-12-20T06:16:13;1.13;;;0.43;;
8419;SDS011;4247;48.550;8.822;2023-12-20T06:18:40;0.20;;;0.20;;
8419;SDS011;4247;48.550;8.822;2023-12-20T06:21:07;0.43;;;0.10;;
8419;SDS011;4247;48.550;8.822;2023-12-20T06:23:39;0.20;;;0.20;;
8419;SDS011;4247;48.550;8.822;2023-12-20T06:26:05;0.30;;;0.10;;
8419;SDS011;4247;48.550;8.822;2023-12-20T06:28:32;0.70;;;0.00;;
8419;SDS011;4247;48.550;8.822;2023-12-20T06:30:59;1.10;;;0.20;;
8419;SDS011;4247;48.550;8.822;2023-12-20T06:33:25;0.20;;;0.20;;
8419;SDS011;4247;48.550;8.822;2023-12-20T06:35:52;0.10;;;0.10;;
8419;SDS011;4247;48.550;8.822;2023-12-20T06:38:19;0.20;;;0.20;;
8419;SDS011;4247;48.550;8.822;2023-12-20T06:40:47;0.23;;;0.23;;
8419;SDS011;4247;48.550;8.822;2023-12-20T06:43:14;2.47;;;0.33;;
8419;SDS011;4247;48.550;8.822;2023-12-20T06:45:41;0.30;;;0.30;;
8419;SDS011;4247;48.550;8.822;2023-12-20T06:48:08;0.77;;;0.73;;
8419;SDS011;4247;48.550;8.822;2023-12-20T06:50:36;0.43;;;0.43;;
8419;SDS011;4247;48.550;8.822;2023-12-20T06:53:05;0.40;;;0.27;;
8419;SDS011;4247;48.550;8.822;2023-12-20T06:55:32;0.27;;;0.27;;
8419;SDS011;4247;48.550;8.822;2023-12-20T06:58:00;0.13;;;0.13;;
8419;SDS011;4247;48.550;8.822;2023-12-20T07:00:27;0.20;;;0.17;;
8419;SDS011;4247;48.550;8.822;2023-12-20T07:02:54;1.50;;;0.10;;
8419;SDS011;4247;48.550;8.822;2023-12-20T07:05:21;0.10;;;0.10;;
8419;SDS011;4247;48.550;8.822;2023-12-20T07:07:47;0.10;;;0.10;;
8419;SDS011;4247;48.550;8.822;2023-12-20T07:10:14;0.10;;;0.10;;
8419;SDS011;4247;48.550;8.822;2023-12-20T07:12:41;0.13;;;0.13;;
8419;SDS011;4247;48.550;8.822;2023-12-20T07:15:09;0.17;;;0.17;;
8419;SDS011;4247;48.550;8.822;2023-12-20T07:17:36;0.20;;;0.20;;
8419;SDS011;4247;48.550;8.822;2023-12-20T07:20:04;0.63;;;0.23;;
8419;SDS011;4247;48.550;8.822;2023-12-20T07:22:34;0.30;;;0.30;;
8419;SDS011;4247;48.550;8.822;2023-12-20T07:25:01;0.10;;;0.10;;
8419;SDS011;4247;48.550;8.822;2023-12-20T07:27:28;0.37;;;0.30;;
8419;SDS011;4247;48.550;8.822;2023-12-20T07:29:55;1.00;;;0.30;;
8419;SDS011;4247;48.550;8.822;2023-12-20T07:32:23;1.97;;;0.20;;
8419;SDS011;4247;48.550;8.822;2023-12-20T07:34:50;0.67;;;0.30;;
8419;SDS011;4247;48.550;8.822;2023-12-20T07:37:16;0.40;;;0.40;;
8419;SDS011;4247;48.550;8.822;2023-12-20T07:39:43;1.23;;;0.30;;
8419;SDS011;4247;48.550;8.822;2023-12-20T07:42:10;0.10;;;0.10;;
8419;SDS011;4247;48.550;8.822;2023-12-20T07:44:36;0.37;;;0.23;;
8419;SDS011;4247;48.550;8.822;2023-12-20T07:47:03;0.10;;;0.10;;
8419;SDS011;4247;48.550;8.822;2023-12-20T07:49:32;0.87;;;0.10;;
8419;SDS011;4247;48.550;8.822;2023-12-20T07:51:58;0.20;;;0.20;;
8419;SDS011;4247;48.550;8.822;2023-12-20T07:54:25;0.10;;;0.10;;
8419;SDS011;4247;48.550;8.822;2023-12-20T07:56:52;0.20;;;0.20;;
8419;SDS011;4247;48.550;8.822;2023-12-20T07:59:18;0.23;;;0.23;;
8419;SDS011;4247;48.550;8.822;2023-12-20T08:01:45;0.20;;;0.20;;
8419;SDS011;4247;48.550;8.822;2023-12-20T08:04:12;0.50;;;0.30;;
8419;SDS011;4247;48.550;8.822;2023-12-20T08:06:40;0.27;;;0.27;;
8419;SDS011;4247;48.550;8.822;2023-12-20T08:09:06;0.30;;;0.30;;
8419;SDS011;4247;48.550;8.822;2023-12-20T08:11:33;0.30;;;0.30;;
8419;SDS011;4247;48.550;8.822;2023-12-20T08:14:00;0.53;;;0.53;;
8419;SDS011;4247;48.550;8.822;2023-12-20T08:16:26;0.70;;;0.70;;
8419;SDS011;4247;48.550;8.822;2023-12-20T08:18:53;0.60;;;0.60;;
8419;SDS011;4247;48.550;8.822;2023-12-20T08:21:20;0.60;;;0.60;;
8419;SDS011;4247;48.550;8.822;2023-12-20T08:23:49;0.30;;;0.30;;
8419;SDS011;4247;48.550;8.822;2023-12-20T08:26:18;0.60;;;0.40;;
8419;SDS011;4247;48.550;8.822;2023-12-20T08:28:47;0.63;;;0.60;;
8419;SDS011;4247;48.550;8.822;2023-12-20T08:31:13;1.00;;;0.40;;
8419;SDS011;4247;48.550;8.822;2023-12-20T08:33:41;2.73;;;0.50;;
8419;SDS011;4247;48.550;8.822;2023-12-20T08:36:08;0.70;;;0.60;;
8419;SDS011;4247;48.550;8.822;2023-12-20T08:38:35;0.50;;;0.50;;
8419;SDS011;4247;48.550;8.822;2023-12-20T08:41:03;0.40;;;0.40;;
8419;SDS011;4247;48.550;8.822;2023-12-20T08:43:31;2.00;;;0.80;;
8419;SDS011;4247;48.550;8.822;2023-12-20T08:45:58;0.60;;;0.50;;
8419;SDS011;4247;48.550;8.822;2023-12-20T08:48:24;0.47;;;0.47;;
8419;SDS011;4247;48.550;8.822;2023-12-20T08:50:51;0.30;;;0.30;;
8419;SDS011;4247;48.550;8.822;2023-12-20T08:53:18;1.73;;;0.37;;
8419;SDS011;4247;48.550;8.822;2023-12-20T08:55:45;1.20;;;1.10;;
8419;SDS011;4247;48.550;8.822;2023-12-20T08:58:14;0.87;;;0.67;;
8419;SDS011;4247;48.550;8.822;2023-12-20T09:00:40;1.50;;;0.43;;
8419;SDS011;4247;48.550;8.822;2023-12-20T09:03:07;0.50;;;0.50;;
8419;SDS011;4247;48.550;8.822;2023-12-20T09:05:34;0.80;;;0.70;;
8419;SDS011;4247;48.550;8.822;2023-12-20T09:08:01;0.70;;;0.70;;
8419;SDS011;4247;48.550;8.822;2023-12-20T09:10:29;2.87;;;0.80;;
8419;SDS011;4247;48.550;8.822;2023-12-20T09:12:55;1.60;;;0.80;;
8419;SDS011;4247;48.550;8.822;2023-12-20T09:15:24;0.60;;;0.60;;
8419;SDS011;4247;48.550;8.822;2023-12-20T09:17:51;2.00;;;0.50;;
8419;SDS011;4247;48.550;8.822;2023-12-20T09:20:18;1.73;;;0.50;;
8419;SDS011;4247;48.550;8.822;2023-12-20T09:22:44;1.63;;;0.50;;
8419;SDS011;4247;48.550;8.822;2023-12-20T09:25:12;0.80;;;0.80;;
8419;SDS011;4247;48.550;8.822;2023-12-20T09:27:40;0.80;;;0.70;;
8419;SDS011;4247;48.550;8.822;2023-12-20T09:30:07;2.80;;;0.80;;
8419;SDS011;4247;48.550;8.822;2023-12-20T09:32:36;1.13;;;0.50;;
8419;SDS011;4247;48.550;8.822;2023-12-20T09:35:03;0.90;;;0.70;;
8419;SDS011;4247;48.550;8.822;2023-12-20T09:37:31;0.50;;;0.30;;
8419;SDS011;4247;48.550;8.822;2023-12-20T09:39:58;3.23;;;1.13;;
8419;SDS011;4247;48.550;8.822;2023-12-20T09:42:28;1.33;;;0.50;;
8419;SDS011;4247;48.550;8.822;2023-12-20T09:45:00;0.87;;;0.87;;
8419;SDS011;4247;48.550;8.822;2023-12-20T09:47:28;0.50;;;0.50;;
8419;SDS011;4247;48.550;8.822;2023-12-20T09:49:57;1.17;;;0.63;;
8419;SDS011;4247;48.550;8.822;2023-12-20T09:52:23;0.53;;;0.53;;
8419;SDS011;4247;48.550;8.822;2023-12-20T09:54:50;3.80;;;0.60;;
8419;SDS011;4247;48.550;8.822;2023-12-20T09:57:20;0.50;;;0.50;;
8419;SDS011;4247;48.550;8.822;2023-12-20T09:59:47;0.40;;;0.40;;
8419;SDS011;4247;48.550;8.822;2023-12-20T10:02:13;4.07;;;0.63;;
8419;SDS011;4247;48.550;8.822;2023-12-20T10:04:41;1.63;;;0.90;;
8419;SDS011;4247;48.550;8.822;2023-12-20T10:07:15;0.90;;;0.50;;
8419;SDS011;4247;48.550;8.822;2023-12-20T10:09:42;1.67;;;1.57;;
8419;SDS011;4247;48.550;8.822;2023-12-20T10:12:10;0.50;;;0.40;;
8419;SDS011;4247;48.550;8.822;2023-12-20T10:14:37;0.60;;;0.60;;
8419;SDS011;4247;48.550;8.822;2023-12-20T10:17:05;1.20;;;0.40;;
8419;SDS011;4247;48.550;8.822;2023-12-20T10:19:32;2.40;;;0.90;;
8419;SDS011;4247;48.550;8.822;2023-12-20T10:21:59;0.83;;;0.50;;
8419;SDS011;4247;48.550;8.822;2023-12-20T10:24:29;2.60;;;0.50;;
8419;SDS011;4247;48.550;8.822;2023-12-20T10:27:12;4.27;;;1.43;;
8419;SDS011;4247;48.550;8.822;2023-12-20T10:29:38;1.17;;;1.17;;
8419;SDS011;4247;48.550;8.822;2023-12-20T10:32:21;0.83;;;0.43;;
8419;SDS011;4247;48.550;8.822;2023-12-20T10:34:49;2.07;;;0.50;;
8419;SDS011;4247;48.550;8.822;2023-12-20T10:37:15;1.23;;;0.97;;
8419;SDS011;4247;48.550;8.822;2023-12-20T10:39:42;0.73;;;0.73;;
8419;SDS011;4247;48.550;8.822;2023-12-20T10:42:09;1.13;;;0.67;;
8419;SDS011;4247;48.550;8.822;2023-12-20T10:44:39;3.13;;;0.70;;
8419;SDS011;4247;48.550;8.822;2023-12-20T10:47:06;1.47;;;0.57;;
8419;SDS011;4247;48.550;8.822;2023-12-20T10:49:34;3.53;;;0.50;;
8419;SDS011;4247;48.550;8.822;2023-12-20T10:52:03;6.57;;;0.77;;
8419;SDS011;4247;48.550;8.822;2023-12-20T10:54:32;0.97;;;0.57;;
8419;SDS011;4247;48.550;8.822;2023-12-20T10:56:59;0.63;;;0.43;;
8419;SDS011;4247;48.550;8.822;2023-12-20T10:59:30;2.37;;;0.53;;
8419;SDS011;4247;48.550;8.822;2023-12-20T11:01:59;3.33;;;0.73;;
8419;SDS011;4247;48.550;8.822;2023-12-20T11:04:30;1.97;;;0.50;;
8419;SDS011;4247;48.550;8.822;2023-12-20T11:07:04;4.13;;;0.60;;
8419;SDS011;4247;48.550;8.822;2023-12-20T11:09:38;3.00;;;0.40;;
8419;SDS011;4247;48.550;8.822;2023-12-20T11:12:10;1.97;;;0.83;;
8419;SDS011;4247;48.550;8.822;2023-12-20T11:14:43;4.90;;;0.80;;
8419;SDS011;4247;48.550;8.822;2023-12-20T11:17:13;2.57;;;0.40;;
8419;SDS011;4247;48.550;8.822;2023-12-20T11:22:30;0.63;;;0.30;;
8419;SDS011;4247;48.550;8.822;2023-12-20T11:25:03;1.37;;;0.80;;
8419;SDS011;4247;48.550;8.822;2023-12-20T11:27:33;3.20;;;0.60;;
8419;SDS011;4247;48.550;8.822;2023-12-20T11:30:02;1.73;;;0.37;;
8419;SDS011;4247;48.550;8.822;2023-12-20T11:32:31;0.30;;;0.30;;
8419;SDS011;4247;48.550;8.822;2023-12-20T11:35:01;2.93;;;0.70;;
8419;SDS011;4247;48.550;8.822;2023-12-20T11:37:43;0.50;;;0.50;;
8419;SDS011;4247;48.550;8.822;2023-12-20T11:40:12;3.50;;;0.60;;
8419;SDS011;4247;48.550;8.822;2023-12-20T11:42:41;3.50;;;0.47;;
8419;SDS011;4247;48.550;8.822;2023-12-20T11:45:11;2.77;;;0.40;;
8419;SDS011;4247;48.550;8.822;2023-12-20T11:47:40;3.00;;;0.60;;
8419;SDS011;4247;48.550;8.822;2023-12-20T11:50:08;2.60;;;0.77;;
8419;SDS011;4247;48.550;8.822;2023-12-20T11:52:35;1.27;;;0.60;;
8419;SDS011;4247;48.550;8.822;2023-12-20T11:55:02;1.03;;;0.40;;
8419;SDS011;4247;48.550;8.822;2023-12-20T11:57:29;2.83;;;0.50;;
8419;SDS011;4247;48.550;8.822;2023-12-20T11:59:56;1.63;;;0.60;;
8419;SDS011;4247;48.550;8.822;2023-12-20T12:02:24;2.67;;;1.03;;
8419;SDS011;4247;48.550;8.822;2023-12-20T12:04:51;1.63;;;0.70;;
8419;SDS011;4247;48.550;8.822;2023-12-20T12:07:18;0.50;;;0.50;;
8419;SDS011;4247;48.550;8.822;2023-12-20T12:09:45;2.70;;;0.70;;
8419;SDS011;4247;48.550;8.822;2023-12-20T12:12:12;4.73;;;0.80;;
8419;SDS011;4247;48.550;8.822;2023-12-20T12:14:39;1.23;;;0.30;;
8419;SDS011;4247;48.550;8.822;2023-12-20T12:17:09;2.60;;;0.53;;
8419;SDS011;4247;48.550;8.822;2023-12-20T12:19:38;3.73;;;0.53;;
8419;SDS011;4247;48.550;8.822;2023-12-20T12:22:05;1.77;;;0.80;;
8419;SDS011;4247;48.550;8.822;2023-12-20T12:24:35;4.20;;;1.00;;
8419;SDS011;4247;48.550;8.822;2023-12-20T12:27:02;1.43;;;0.70;;
8419;SDS011;4247;48.550;8.822;2023-12-20T12:29:29;2.30;;;0.63;;
8419;SDS011;4247;48.550;8.822;2023-12-20T12:31:56;2.87;;;0.50;;
8419;SDS011;4247;48.550;8.822;2023-12-20T12:34:23;0.73;;;0.50;;
8419;SDS011;4247;48.550;8.822;2023-12-20T12:36:52;5.50;;;0.60;;
8419;SDS011;4247;48.550;8.822;2023-12-20T12:39:19;2.30;;;0.47;;
8419;SDS011;4247;48.550;8.822;2023-12-20T12:41:46;0.63;;;0.60;;
8419;SDS011;4247;48.550;8.822;2023-12-20T12:44:13;2.13;;;0.47;;
8419;SDS011;4247;48.550;8.822;2023-12-20T12:46:39;0.40;;;0.40;;
8419;SDS011;4247;48.550;8.822;2023-12-20T12:49:06;2.20;;;0.53;;
8419;SDS011;4247;48.550;8.822;2023-12-20T12:51:33;5.70;;;0.80;;
8419;SDS011;4247;48.550;8.822;2023-12-20T12:54:01;5.83;;;0.67;;
8419;SDS011;4247;48.550;8.822;2023-12-20T12:56:28;1.80;;;0.90;;
8419;SDS011;4247;48.550;8.822;2023-12-20T12:58:55;0.87;;;0.60;;
8419;SDS011;4247;48.550;8.822;2023-12-20T13:01:22;1.87;;;0.50;;
8419;SDS011;4247;48.550;8.822;2023-12-20T13:03:48;3.67;;;0.90;;
8419;SDS011;4247;48.550;8.822;2023-12-20T13:06:15;2.80;;;0.83;;
8419;SDS011;4247;48.550;8.822;2023-12-20T13:08:42;3.73;;;0.50;;
8419;SDS011;4247;48.550;8.822;2023-12-20T13:11:11;6.40;;;0.53;;
8419;SDS011;4247;48.550;8.822;2023-12-20T13:13:38;2.27;;;0.50;;
8419;SDS011;4247;48.550;8.822;2023-12-20T13:16:05;10.53;;;0.80;;
8419;SDS011;4247;48.550;8.822;2023-12-20T13:18:32;10.47;;;0.50;;
8419;SDS011;4247;48.550;8.822;2023-12-20T13:20:58;1.37;;;0.50;;
8419;SDS011;4247;48.550;8.822;2023-12-20T13:23:25;2.40;;;0.80;;
8419;SDS011;4247;48.550;8.822;2023-12-20T13:25:52;7.23;;;0.70;;
8419;SDS011;4247;48.550;8.822;2023-12-20T13:28:20;4.13;;;0.50;;
8419;SDS011;4247;48.550;8.822;2023-12-20T13:30:46;1.63;;;0.30;;
8419;SDS011;4247;48.550;8.822;2023-12-20T13:33:13;1.30;;;0.63;;
8419;SDS011;4247;48.550;8.822;2023-12-20T13:35:40;3.23;;;0.80;;
8419;SDS011;4247;48.550;8.822;2023-12-20T13:38:07;2.57;;;0.57;;
8419;SDS011;4247;48.550;8.822;2023-12-20T13:40:33;1.70;;;0.50;;
8419;SDS011;4247;48.550;8.822;2023-12-20T13:43:00;7.30;;;0.40;;
8419;SDS011;4247;48.550;8.822;2023-12-20T13:45:29;1.03;;;0.50;;
8419;SDS011;4247;48.550;8.822;2023-12-20T13:47:56;3.90;;;0.83;;
8419;SDS011;4247;48.550;8.822;2023-12-20T13:50:23;3.40;;;0.83;;
8419;SDS011;4247;48.550;8.822;2023-12-20T13:52:51;0.90;;;0.40;;
8419;SDS011;4247;48.550;8.822;2023-12-20T13:55:18;6.23;;;0.40;;
8419;SDS011;4247;48.550;8.822;2023-12-20T13:57:47;2.00;;;0.40;;
8419;SDS011;4247;48.550;8.822;2023-12-20T14:00:14;1.57;;;0.80;;
8419;SDS011;4247;48.550;8.822;2023-12-20T14:02:42;1.80;;;0.50;;
8419;SDS011;4247;48.550;8.822;2023-12-20T14:05:09;1.47;;;0.50;;
8419;SDS011;4247;48.550;8.822;2023-12-20T14:07:36;7.80;;;3.07;;
8419;SDS011;4247;48.550;8.822;2023-12-20T14:10:03;1.40;;;0.50;;
8419;SDS011;4247;48.550;8.822;2023-12-20T14:12:30;2.53;;;0.53;;
8419;SDS011;4247;48.550;8.822;2023-12-20T14:15:00;5.97;;;0.60;;
8419;SDS011;4247;48.550;8.822;2023-12-20T14:17:27;1.13;;;0.60;;
8419;SDS011;4247;48.550;8.822;2023-12-20T14:19:55;2.27;;;1.07;;
8419;SDS011;4247;48.550;8.822;2023-12-20T14:22:22;1.10;;;0.70;;
8419;SDS011;4247;48.550;8.822;2023-12-20T14:24:50;0.67;;;0.40;;
8419;SDS011;4247;48.550;8.822;2023-12-20T14:27:17;1.80;;;0.70;;
8419;SDS011;4247;48.550;8.822;2023-12-20T14:29:46;4.83;;;1.00;;
8419;SDS011;4247;48.550;8.822;2023-12-20T14:32:12;1.83;;;0.70;;
8419;SDS011;4247;48.550;8.822;2023-12-20T14:34:40;0.67;;;0.40;;
8419;SDS011;4247;48.550;8.822;2023-12-20T14:37:08;3.73;;;0.80;;
8419;SDS011;4247;48.550;8.822;2023-12-20T14:39:35;1.37;;;0.87;;
8419;SDS011;4247;48.550;8.822;2023-12-20T14:42:04;4.07;;;1.00;;
8419;SDS011;4247;48.550;8.822;2023-12-20T14:44:31;1.63;;;0.70;;
8419;SDS011;4247;48.550;8.822;2023-12-20T14:46:58;3.70;;;0.77;;
8419;SDS011;4247;48.550;8.822;2023-12-20T14:49:27;2.67;;;1.20;;
8419;SDS011;4247;48.550;8.822;2023-12-20T14:51:54;1.07;;;0.70;;
8419;SDS011;4247;48.550;8.822;2023-12-20T14:54:22;4.73;;;0.83;;
8419;SDS011;4247;48.550;8.822;2023-12-20T14:56:49;2.30;;;0.70;;
8419;SDS011;4247;48.550;8.822;2023-12-20T14:59:15;1.63;;;0.70;;
8419;SDS011;4247;48.550;8.822;2023-12-20T15:01:43;3.50;;;0.80;;
8419;SDS011;4247;48.550;8.822;2023-12-20T15:04:10;0.93;;;0.77;;
8419;SDS011;4247;48.550;8.822;2023-12-20T15:06:36;5.00;;;0.77;;
8419;SDS011;4247;48.550;8.822;2023-12-20T15:09:03;3.83;;;0.63;;
8419;SDS011;4247;48.550;8.822;2023-12-20T15:11:32;7.73;;;0.87;;
8419;SDS011;4247;48.550;8.822;2023-12-20T15:13:59;1.33;;;0.90;;
8419;SDS011;4247;48.550;8.822;2023-12-20T15:16:26;1.27;;;0.80;;
8419;SDS011;4247;48.550;8.822;2023-12-20T15:18:53;1.00;;;0.60;;